Oriana — ZCDU9 — position and weather

sailwx.info

Track history (hours):
 
Tides and Currents Weather Stations Pressure Air Temp Water Temp Dewpoint Dewpoint Depression Visibility Wind Speed Wind Dir Waves Ship Positions

Oriana (Bermuda)

Last reported at 2017-Mar-24 01:06 UTC. Time now 2017-Mar-25 19:41 UTC.
Position N 36°04' W 033°22'.

Length 261 m; beam 32.2 m; draft 8.2 m.

Type: Ship. MMSI: 310529000.

Date/timePositionNaut miles runAvg speedWind from/ knotsBaromVisibWave heightAir tempDewpointWater temp
2017-Mar-24 01:06N 36°04' W 033°22'1220.4
2017-Mar-24 00:29N 36°10' W 033°08'8220.3
2017-Mar-23 20:25N 36°48' W 031°37'2620.0
2017-Mar-23 19:06N 36°59' W 031°08'1620.3
2017-Mar-23 18:19N 37°06' W 030°50'4020.2
2017-Mar-23 16:22N 37°24' W 030°05'1620.1
2017-Mar-23 15:33N 37°31' W 029°47'1323.6
2017-Mar-23 15:00N 37°30' W 029°30'1023.5 1034.410.8 16.0 9.315.0
2017-Mar-23 14:33N 37°39' W 029°23'2020.3
2017-Mar-23 13:33N 37°47' W 028°60'2019.8
2017-Mar-23 12:33N 37°56' W 028°38'2020.0
2017-Mar-23 11:33N 38°05' W 028°15'2119.9
2017-Mar-23 10:32N 38°13' W 027°51'1919.7
2017-Mar-23 09:33N 38°21' W 027°28'2019.9
2017-Mar-23 08:33N 38°32' W 027°07'11 5.6
2017-Mar-23 06:32N 38°43' W 027°03'0 0.0
2017-Mar-23 04:33N 38°43' W 027°03'0 0.0
2017-Mar-23 01:28N 38°43' W 027°03'0 0.0
2017-Mar-22 22:31N 38°43' W 027°03'0 0.0
2017-Mar-22 21:31N 38°43' W 027°03'0 0.0
2017-Mar-22 20:25N 38°43' W 027°03'0 0.0
2017-Mar-22 19:25N 38°43' W 027°03'0 0.0
2017-Mar-22 17:28N 38°43' W 027°03'0 0.0
2017-Mar-22 16:31N 38°43' W 027°03'0 0.0
2017-Mar-22 15:28N 38°43' W 027°03'0 0.0
2017-Mar-22 10:22N 38°43' W 027°03'0 0.0
2017-Mar-22 09:32N 38°43' W 027°03'2210.3
2017-Mar-22 07:26N 38°54' W 026°39'  
2017-Mar-19 17:18N 48°34' W 007°25'1114.6
2017-Mar-19 16:32N 48°39' W 007°10'1815.2
2017-Mar-19 15:22N 48°48' W 006°47'2216.9
2017-Mar-19 14:05N 48°58' W 006°17'7817.2
2017-Mar-19 09:33N 49°32' W 004°30'3816.8
2017-Mar-19 07:18N 49°48' W 003°37'1317.7
2017-Mar-19 06:33N 49°53' W 003°18'1918.6
2017-Mar-19 05:33N 50°01' W 002°52'2019.5
2017-Mar-19 04:33N 50°07' W 002°22'1919.1
2017-Mar-19 03:33N 50°16' W 001°56'1918.1
2017-Mar-19 02:29N 50°25' W 001°30'1616.9
2017-Mar-19 01:33N 50°31' W 001°07'1312.5
2017-Mar-19 00:33N 50°43' W 000°59'1313.3
2017-Mar-18 23:33N 50°49' W 001°18'7 6.9
2017-Mar-18 22:32N 50°54' W 001°26'0 0.0
2017-Mar-18 21:32N 50°54' W 001°26'0 0.0
2017-Mar-18 20:32N 50°54' W 001°26'0 0.0
2017-Mar-18 19:32N 50°54' W 001°26'0 0.0
2017-Mar-18 18:32N 50°54' W 001°26'0 0.0
2017-Mar-18 17:32N 50°54' W 001°26'0 0.0
2017-Mar-18 16:32N 50°54' W 001°26'0 0.0
2017-Mar-18 15:32N 50°54' W 001°26'0 0.0
2017-Mar-18 14:32N 50°54' W 001°26'0 0.0
2017-Mar-18 13:32N 50°54' W 001°26'0 0.0
2017-Mar-18 12:32N 50°54' W 001°26'0 0.0
2017-Mar-18 11:29N 50°54' W 001°26'0 0.0
2017-Mar-18 10:32N 50°54' W 001°26'0 0.0
2017-Mar-18 09:29N 50°54' W 001°26'0 0.0
2017-Mar-18 08:32N 50°54' W 001°26'0 0.0
2017-Mar-18 07:31N 50°54' W 001°26'0 0.0
2017-Mar-18 06:34N 50°54' W 001°26'2 2.3
2017-Mar-18 05:34N 50°53' W 001°23'9 9.2
2017-Mar-18 04:34N 50°46' W 001°13'1414.0
2017-Mar-18 03:33N 50°38' W 000°54'1817.8
2017-Mar-18 02:33N 50°35' W 000°27'1817.6
2017-Mar-18 01:31N 50°33' E 000°01'1616.7
2017-Mar-18 00:33N 50°37' E 000°26'1616.0
2017-Mar-17 23:33N 50°44' E 000°48'1717.2
2017-Mar-17 22:33N 50°54' E 001°11'1919.5
2017-Mar-17 21:33N 51°08' E 001°33'1919.0
2017-Mar-17 20:33N 51°23' E 001°52'1818.4
2017-Mar-17 19:33N 51°36' E 002°12'10318.6
2017-Mar-17 14:00N 53°18' E 002°42'24820.6 230 / 331012.310.8 7.5 4.0 6.0
2017-Mar-17 02:00N 57°18' E 004°30'6214.1 260 / 401004.510.8 7.0 0.7 6.0
2017-Mar-16 21:33N 58°18' E 005°00'1818.2
2017-Mar-16 20:33N 58°36' E 005°09'1615.7
2017-Mar-16 19:33N 58°49' E 005°24'1211.6
2017-Mar-16 18:33N 59°00' E 005°33'6 5.8
2017-Mar-16 17:33N 58°58' E 005°44'0 0.0
2017-Mar-16 16:31N 58°58' E 005°44'0 0.0
2017-Mar-16 15:31N 58°58' E 005°44'0 0.0
2017-Mar-16 14:31N 58°58' E 005°44'0 0.0
2017-Mar-16 13:31N 58°58' E 005°44'0 0.0
2017-Mar-16 12:31N 58°58' E 005°44'1 0.7
2017-Mar-16 11:33N 58°59' E 005°43'1110.7
2017-Mar-16 10:33N 59°06' E 005°28'1413.7
2017-Mar-16 09:33N 59°07' E 005°01'9619.2
2017-Mar-16 04:33N 60°41' E 004°20'1918.9
2017-Mar-16 03:33N 60°60' E 004°16'5418.1
2017-Mar-16 00:33N 61°54' E 004°25'1717.2
2017-Mar-15 23:33N 62°09' E 004°42'1817.7
2017-Mar-15 22:33N 62°25' E 005°00'38914.3
2017-Mar-14 19:26N 68°08' E 012°16'1415.8
2017-Mar-14 18:33N 68°19' E 012°39'1716.6
2017-Mar-14 17:33N 68°33' E 013°06'1717.4
2017-Mar-14 16:33N 68°46' E 013°35'1817.8
2017-Mar-14 15:33N 69°01' E 014°05'1817.9
2017-Mar-14 14:33N 69°15' E 014°37'1818.2
2017-Mar-14 13:33N 69°27' E 015°15'2019.6
2017-Mar-14 12:33N 69°40' E 015°57'2019.6
2017-Mar-14 11:33N 69°52' E 016°41'4120.3
2017-Mar-14 09:33N 70°17' E 018°16'2120.6
2017-Mar-14 08:33N 70°23' E 019°14'2121.1
2017-Mar-14 07:32N 70°28' E 020°17'2020.3
2017-Mar-14 06:33N 70°07' E 020°13'1010.0
2017-Mar-14 05:32N 70°15' E 020°31'4 6.9
2017-Mar-14 05:00N 70°12' E 020°36'2147.8 160 / 241000.010.8 4.0 2.8 3.0
2017-Mar-14 04:33N 70°25' E 021°25'2221.4
2017-Mar-14 03:33N 70°17' E 022°25'1817.8
2017-Mar-14 02:33N 70°05' E 023°06'8 8.2
2017-Mar-14 01:33N 69°59' E 023°20'  
Track history (hours):
 
Tides and Currents Weather Stations Pressure Air Temp Water Temp Dewpoint Dewpoint Depression Visibility Wind Speed Wind Dir Waves Ship Positions

Oriana (Bermuda)

Last reported at 2017-Mar-24 01:06 UTC. Time now 2017-Mar-25 19:41 UTC.
Position N 36°04' W 033°22'.

Length 261 m; beam 32.2 m; draft 8.2 m.

Type: Ship. MMSI: 310529000.

Date/timePositionNaut miles runAvg speedWind from/ knotsBaromVisibWave heightAir tempDewpointWater temp
2017-Mar-24 01:06N 36°04' W 033°22'1220.4
2017-Mar-24 00:29N 36°10' W 033°08'8220.3
2017-Mar-23 20:25N 36°48' W 031°37'2620.0
2017-Mar-23 19:06N 36°59' W 031°08'1620.3
2017-Mar-23 18:19N 37°06' W 030°50'4020.2
2017-Mar-23 16:22N 37°24' W 030°05'1620.1
2017-Mar-23 15:33N 37°31' W 029°47'1323.6
2017-Mar-23 15:00N 37°30' W 029°30'1023.5 1034.410.8 16.0 9.315.0
2017-Mar-23 14:33N 37°39' W 029°23'2020.3
2017-Mar-23 13:33N 37°47' W 028°60'2019.8
2017-Mar-23 12:33N 37°56' W 028°38'2020.0
2017-Mar-23 11:33N 38°05' W 028°15'2119.9
2017-Mar-23 10:32N 38°13' W 027°51'1919.7
2017-Mar-23 09:33N 38°21' W 027°28'2019.9
2017-Mar-23 08:33N 38°32' W 027°07'11 5.6
2017-Mar-23 06:32N 38°43' W 027°03'0 0.0
2017-Mar-23 04:33N 38°43' W 027°03'0 0.0
2017-Mar-23 01:28N 38°43' W 027°03'0 0.0
2017-Mar-22 22:31N 38°43' W 027°03'0 0.0
2017-Mar-22 21:31N 38°43' W 027°03'0 0.0
2017-Mar-22 20:25N 38°43' W 027°03'0 0.0
2017-Mar-22 19:25N 38°43' W 027°03'0 0.0
2017-Mar-22 17:28N 38°43' W 027°03'0 0.0
2017-Mar-22 16:31N 38°43' W 027°03'0 0.0
2017-Mar-22 15:28N 38°43' W 027°03'0 0.0
2017-Mar-22 10:22N 38°43' W 027°03'0 0.0
2017-Mar-22 09:32N 38°43' W 027°03'2210.3
2017-Mar-22 07:26N 38°54' W 026°39'  
2017-Mar-19 17:18N 48°34' W 007°25'1114.6
2017-Mar-19 16:32N 48°39' W 007°10'1815.2
2017-Mar-19 15:22N 48°48' W 006°47'2216.9
2017-Mar-19 14:05N 48°58' W 006°17'7817.2
2017-Mar-19 09:33N 49°32' W 004°30'3816.8
2017-Mar-19 07:18N 49°48' W 003°37'1317.7
2017-Mar-19 06:33N 49°53' W 003°18'1918.6
2017-Mar-19 05:33N 50°01' W 002°52'2019.5
2017-Mar-19 04:33N 50°07' W 002°22'1919.1
2017-Mar-19 03:33N 50°16' W 001°56'1918.1
2017-Mar-19 02:29N 50°25' W 001°30'1616.9
2017-Mar-19 01:33N 50°31' W 001°07'1312.5
2017-Mar-19 00:33N 50°43' W 000°59'1313.3
2017-Mar-18 23:33N 50°49' W 001°18'7 6.9
2017-Mar-18 22:32N 50°54' W 001°26'0 0.0
2017-Mar-18 21:32N 50°54' W 001°26'0 0.0
2017-Mar-18 20:32N 50°54' W 001°26'0 0.0
2017-Mar-18 19:32N 50°54' W 001°26'0 0.0
2017-Mar-18 18:32N 50°54' W 001°26'0 0.0
2017-Mar-18 17:32N 50°54' W 001°26'0 0.0
2017-Mar-18 16:32N 50°54' W 001°26'0 0.0
2017-Mar-18 15:32N 50°54' W 001°26'0 0.0
2017-Mar-18 14:32N 50°54' W 001°26'0 0.0
2017-Mar-18 13:32N 50°54' W 001°26'0 0.0
2017-Mar-18 12:32N 50°54' W 001°26'0 0.0
2017-Mar-18 11:29N 50°54' W 001°26'0 0.0
2017-Mar-18 10:32N 50°54' W 001°26'0 0.0
2017-Mar-18 09:29N 50°54' W 001°26'0 0.0
2017-Mar-18 08:32N 50°54' W 001°26'0 0.0
2017-Mar-18 07:31N 50°54' W 001°26'0 0.0
2017-Mar-18 06:34N 50°54' W 001°26'2 2.3
2017-Mar-18 05:34N 50°53' W 001°23'9 9.2
2017-Mar-18 04:34N 50°46' W 001°13'1414.0
2017-Mar-18 03:33N 50°38' W 000°54'1817.8
2017-Mar-18 02:33N 50°35' W 000°27'1817.6
2017-Mar-18 01:31N 50°33' E 000°01'1616.7
2017-Mar-18 00:33N 50°37' E 000°26'1616.0
2017-Mar-17 23:33N 50°44' E 000°48'1717.2
2017-Mar-17 22:33N 50°54' E 001°11'1919.5
2017-Mar-17 21:33N 51°08' E 001°33'1919.0
2017-Mar-17 20:33N 51°23' E 001°52'1818.4
2017-Mar-17 19:33N 51°36' E 002°12'10318.6
2017-Mar-17 14:00N 53°18' E 002°42'24820.6 230 / 331012.310.8 7.5 4.0 6.0
2017-Mar-17 02:00N 57°18' E 004°30'6214.1 260 / 401004.510.8 7.0 0.7 6.0
2017-Mar-16 21:33N 58°18' E 005°00'1818.2
2017-Mar-16 20:33N 58°36' E 005°09'1615.7
2017-Mar-16 19:33N 58°49' E 005°24'1211.6
2017-Mar-16 18:33N 59°00' E 005°33'6 5.8
2017-Mar-16 17:33N 58°58' E 005°44'0 0.0
2017-Mar-16 16:31N 58°58' E 005°44'0 0.0
2017-Mar-16 15:31N 58°58' E 005°44'0 0.0
2017-Mar-16 14:31N 58°58' E 005°44'0 0.0
2017-Mar-16 13:31N 58°58' E 005°44'0 0.0
2017-Mar-16 12:31N 58°58' E 005°44'1 0.7
2017-Mar-16 11:33N 58°59' E 005°43'1110.7
2017-Mar-16 10:33N 59°06' E 005°28'1413.7
2017-Mar-16 09:33N 59°07' E 005°01'9619.2
2017-Mar-16 04:33N 60°41' E 004°20'1918.9
2017-Mar-16 03:33N 60°60' E 004°16'5418.1
2017-Mar-16 00:33N 61°54' E 004°25'1717.2
2017-Mar-15 23:33N 62°09' E 004°42'1817.7
2017-Mar-15 22:33N 62°25' E 005°00'38914.3
2017-Mar-14 19:26N 68°08' E 012°16'1415.8
2017-Mar-14 18:33N 68°19' E 012°39'1716.6
2017-Mar-14 17:33N 68°33' E 013°06'1717.4
2017-Mar-14 16:33N 68°46' E 013°35'1817.8
2017-Mar-14 15:33N 69°01' E 014°05'1817.9
2017-Mar-14 14:33N 69°15' E 014°37'1818.2
2017-Mar-14 13:33N 69°27' E 015°15'2019.6
2017-Mar-14 12:33N 69°40' E 015°57'2019.6
2017-Mar-14 11:33N 69°52' E 016°41'4120.3
2017-Mar-14 09:33N 70°17' E 018°16'2120.6
2017-Mar-14 08:33N 70°23' E 019°14'2121.1
2017-Mar-14 07:32N 70°28' E 020°17'2020.3
2017-Mar-14 06:33N 70°07' E 020°13'1010.0
2017-Mar-14 05:32N 70°15' E 020°31'4 6.9
2017-Mar-14 05:00N 70°12' E 020°36'2147.8 160 / 241000.010.8 4.0 2.8 3.0
2017-Mar-14 04:33N 70°25' E 021°25'2221.4
2017-Mar-14 03:33N 70°17' E 022°25'1817.8
2017-Mar-14 02:33N 70°05' E 023°06'8 8.2
2017-Mar-14 01:33N 69°59' E 023°20'  

Dump ship's entire track history